Time;durP1;ratioP1;P1;durP2;ratioP2;P2;SDS_P1;SDS_P2;PMS_P1;PMS_P2;Temp;Humidity;BMP_temperature;BMP_pressure;BME280_temperature;BME280_humidity;BME280_pressure;Samples;Min_cycle;Max_cycle;Signal;HPM_P1;HPM_P2
2021/08/18 00:00:17;;;;;;;;;;;;;;;13.87;79.73;99662.00;5114726;28;19924;-68
2021/08/18 00:02:46;;;;;;;;;;;;;;;13.87;80.13;99662.00;5113473;28;19996;-68
2021/08/18 00:05:17;;;;;;;;;;;;;;;13.81;80.09;99669.78;5113470;28;20289;-69
2021/08/18 00:07:45;;;;;;;;;;;;;;;13.87;80.60;99675.66;5114740;28;20381;-69
2021/08/18 00:10:15;;;;;;;;;;;;;;;13.86;80.63;99662.88;5114728;28;19931;-69
2021/08/18 00:12:44;;;;;;;;;;;;;;;14.02;80.64;99648.94;5114955;28;19959;-70
2021/08/18 00:15:15;;;;;;;;;;;;;;;14.12;80.88;99650.50;5114811;28;20284;-69
2021/08/18 00:17:44;;;;;;;;;;;;;;;14.16;80.72;99647.00;5113359;28;19973;-69
2021/08/18 00:20:13;;;;;;;;;;;;;;;14.21;80.51;99636.66;5114760;28;19928;-69
2021/08/18 00:22:42;;;;;;;;;;;;;;;14.33;80.22;99637.34;5114724;28;20421;-69
2021/08/18 00:25:11;;;;;;;;;;;;;;;14.47;80.06;99645.66;5114448;28;19928;-69
2021/08/18 00:27:41;;;;;;;;;;;;;;;14.69;79.72;99639.28;5114491;28;19935;-68
2021/08/18 00:30:11;;;;;;;;;;;;;;;14.83;78.91;99648.47;5114395;28;20377;-69
2021/08/18 00:32:39;;;;;;;;;;;;;;;14.81;78.10;99657.91;5114616;28;19963;-69
2021/08/18 00:35:09;;;;;;;;;;;;;;;14.59;78.02;99678.84;5115030;28;20014;-68
2021/08/18 00:37:38;;;;;;;;;;;;;;;14.47;78.18;99667.91;5114386;28;20266;-69
2021/08/18 00:40:07;;;;;;;;;;;;;;;14.50;77.98;99673.88;5114877;28;19946;-68
2021/08/18 00:42:35;;;;;;;;;;;;;;;14.47;77.41;99673.06;5114249;28;19955;-69
2021/08/18 00:45:06;;;;;;;;;;;;;;;14.39;77.69;99668.06;5113195;28;19923;-68
2021/08/18 00:47:40;;;;;;;;;;;;;;;14.24;77.83;99660.56;5114686;28;19924;-68
2021/08/18 00:50:09;;;;;;;;;;;;;;;14.33;78.16;99649.34;5114242;28;19930;-68
2021/08/18 00:52:38;;;;;;;;;;;;;;;14.54;78.15;99644.69;5116158;28;19962;-69
2021/08/18 00:55:09;;;;;;;;;;;;;;;14.64;77.71;99661.63;5118799;28;19953;-68
2021/08/18 00:57:37;;;;;;;;;;;;;;;14.62;77.25;99659.97;5118325;28;20015;-69
2021/08/18 01:00:09;;;;;;;;;;;;;;;14.73;76.88;99651.19;5118867;28;20027;-68
2021/08/18 01:02:38;;;;;;;;;;;;;;;14.78;76.95;99648.53;5118183;28;20365;-68
2021/08/18 01:05:09;;;;;;;;;;;;;;;14.77;77.16;99636.59;5118406;28;19928;-68
2021/08/18 01:07:37;;;;;;;;;;;;;;;14.62;76.79;99637.69;5118466;28;19931;-68
2021/08/18 01:10:06;;;;;;;;;;;;;;;14.55;77.44;99646.38;5118594;28;19982;-68
2021/08/18 01:12:35;;;;;;;;;;;;;;;14.46;77.40;99663.69;5117860;28;19969;-69
2021/08/18 01:15:04;;;;;;;;;;;;;;;14.36;77.63;99665.56;5117908;28;19924;-69
2021/08/18 01:17:34;;;;;;;;;;;;;;;14.27;77.57;99662.25;5117881;28;20309;-69
2021/08/18 01:20:03;;;;;;;;;;;;;;;14.22;77.88;99682.88;5117949;28;19930;-68
2021/08/18 01:22:33;;;;;;;;;;;;;;;14.24;78.09;99691.38;5117701;28;19928;-68
2021/08/18 01:25:02;;;;;;;;;;;;;;;14.18;78.45;99686.31;5118085;28;19935;-68
2021/08/18 01:27:31;;;;;;;;;;;;;;;14.34;78.64;99692.97;5118295;28;20015;-69
2021/08/18 01:30:01;;;;;;;;;;;;;;;14.45;77.85;99706.47;5117583;28;19930;-69
2021/08/18 01:32:42;;;;;;;;;;;;;;;14.55;78.24;99710.59;5117780;27;20294;-68
2021/08/18 01:35:17;;;;;;;;;;;;;;;14.58;77.77;99709.72;5117911;28;19986;-69
2021/08/18 01:37:46;;;;;;;;;;;;;;;14.54;77.78;99708.91;5117925;28;19927;-68
2021/08/18 01:40:15;;;;;;;;;;;;;;;14.48;77.70;99696.16;5117754;28;20026;-69
2021/08/18 01:42:44;;;;;;;;;;;;;;;14.56;77.68;99691.75;5117313;28;20285;-69
2021/08/18 01:45:20;;;;;;;;;;;;;;;14.41;77.80;99679.16;5117391;28;19946;-68
2021/08/18 01:47:49;;;;;;;;;;;;;;;14.33;77.76;99673.28;5117857;28;19924;-69
2021/08/18 01:50:18;;;;;;;;;;;;;;;14.08;78.02;99657.38;5115975;28;20014;-68
2021/08/18 01:52:49;;;;;;;;;;;;;;;14.03;78.67;99648.94;5117145;28;19950;-69
2021/08/18 01:55:18;;;;;;;;;;;;;;;13.99;79.13;99643.84;5117288;27;19924;-69
2021/08/18 01:57:50;;;;;;;;;;;;;;;13.90;79.52;99631.16;5117076;28;19930;-69
2021/08/18 02:00:20;;;;;;;;;;;;;;;13.92;79.98;99637.13;5117138;28;19924;-70
2021/08/18 02:02:49;;;;;;;;;;;;;;;13.98;79.70;99637.03;5116974;28;20015;-69
2021/08/18 02:05:19;;;;;;;;;;;;;;;13.93;80.07;99643.97;5116336;28;19923;-68
2021/08/18 02:07:48;;;;;;;;;;;;;;;13.93;80.06;99649.94;5116905;28;20465;-69
2021/08/18 02:10:17;;;;;;;;;;;;;;;14.06;80.06;99645.44;5116800;28;19924;-68
2021/08/18 02:12:47;;;;;;;;;;;;;;;14.22;79.81;99639.22;5116780;28;19931;-69
2021/08/18 02:15:18;;;;;;;;;;;;;;;14.23;79.19;99643.47;5116506;28;20382;-69
2021/08/18 02:17:50;;;;;;;;;;;;;;;14.08;79.42;99638.59;5117293;28;19927;-70
2021/08/18 02:20:19;;;;;;;;;;;;;;;14.03;79.44;99640.38;5116731;28;19923;-70
2021/08/18 02:22:48;;;;;;;;;;;;;;;13.93;80.05;99637.09;5116650;28;19924;-69
2021/08/18 02:25:18;;;;;;;;;;;;;;;13.79;80.08;99640.75;5116541;28;19928;-70
2021/08/18 02:27:47;;;;;;;;;;;;;;;13.82;80.38;99645.84;5116574;28;19928;-69
2021/08/18 02:30:17;;;;;;;;;;;;;;;13.84;80.38;99644.09;5116711;28;19967;-69
2021/08/18 02:32:46;;;;;;;;;;;;;;;13.78;80.82;99649.28;5116428;28;19928;-69
2021/08/18 02:35:17;;;;;;;;;;;;;;;13.75;80.87;99649.38;5116483;28;20395;-69
2021/08/18 02:37:46;;;;;;;;;;;;;;;13.73;80.92;99657.06;5116465;28;20396;-69
2021/08/18 02:40:18;;;;;;;;;;;;;;;13.73;80.82;99651.94;5116273;28;19967;-69
2021/08/18 02:42:47;;;;;;;;;;;;;;;13.73;81.28;99643.38;5116882;28;20036;-69
2021/08/18 02:45:17;;;;;;;;;;;;;;;13.75;81.27;99644.22;5116394;28;20369;-69
2021/08/18 02:47:46;;;;;;;;;;;;;;;13.93;81.14;99638.81;5116130;28;19966;-70
2021/08/18 02:50:15;;;;;;;;;;;;;;;14.14;81.48;99641.06;5116376;27;19930;-69
2021/08/18 02:52:46;;;;;;;;;;;;;;;14.26;80.67;99642.56;5116131;28;20022;-70
2021/08/18 02:55:15;;;;;;;;;;;;;;;14.37;80.77;99651.00;5116194;28;20270;-69
2021/08/18 02:57:44;;;;;;;;;;;;;;;14.46;80.51;99651.69;5116282;28;20022;-69
2021/08/18 03:00:14;;;;;;;;;;;;;;;14.52;80.17;99654.16;5115881;28;19928;-70
2021/08/18 03:02:43;;;;;;;;;;;;;;;14.53;79.55;99650.72;5116150;28;19934;-69
2021/08/18 03:05:12;;;;;;;;;;;;;;;14.51;79.14;99652.47;5114561;28;19923;-69
2021/08/18 03:07:41;;;;;;;;;;;;;;;14.42;79.63;99659.47;5116093;28;20026;-70
2021/08/18 03:10:12;;;;;;;;;;;;;;;14.40;79.59;99656.91;5115618;28;19939;-69
2021/08/18 03:12:41;;;;;;;;;;;;;;;14.53;79.43;99662.69;5115676;28;20274;-69
2021/08/18 03:15:10;;;;;;;;;;;;;;;14.61;79.49;99660.84;5114833;28;19967;-70
2021/08/18 03:17:39;;;;;;;;;;;;;;;14.52;78.87;99661.00;5115349;28;19930;-68
2021/08/18 03:20:08;;;;;;;;;;;;;;;14.38;79.39;99658.66;5115535;28;19924;-70
2021/08/18 03:22:37;;;;;;;;;;;;;;;14.17;79.11;99664.13;5115428;28;19924;-69
2021/08/18 03:25:06;;;;;;;;;;;;;;;14.06;79.94;99660.84;5114033;28;20031;-70
2021/08/18 03:27:38;;;;;;;;;;;;;;;14.01;79.93;99660.09;5115341;28;19924;-70
2021/08/18 03:30:07;;;;;;;;;;;;;;;14.05;80.29;99654.03;5114062;28;20377;-70
2021/08/18 03:32:36;;;;;;;;;;;;;;;14.12;80.59;99660.78;5114025;28;19977;-68
2021/08/18 03:35:05;;;;;;;;;;;;;;;14.11;80.48;99649.66;5115184;28;19924;-69
2021/08/18 03:37:34;;;;;;;;;;;;;;;14.06;80.61;99653.16;5115139;28;19934;-69
2021/08/18 03:40:02;;;;;;;;;;;;;;;13.99;80.50;99656.69;5115127;28;19923;-69
2021/08/18 03:42:31;;;;;;;;;;;;;;;14.07;81.17;99650.56;5115039;28;19968;-69
2021/08/18 03:45:01;;;;;;;;;;;;;;;14.16;81.14;99649.56;5115232;28;19924;-69
2021/08/18 03:47:29;;;;;;;;;;;;;;;14.30;80.84;99645.09;5114990;28;19970;-69
2021/08/18 03:49:58;;;;;;;;;;;;;;;14.46;80.60;99649.13;5115314;28;20285;-69
2021/08/18 03:52:27;;;;;;;;;;;;;;;14.57;80.04;99652.34;5114831;28;19924;-69
2021/08/18 03:54:56;;;;;;;;;;;;;;;14.65;79.34;99657.34;5115393;28;19923;-69
2021/08/18 03:57:24;;;;;;;;;;;;;;;14.71;78.83;99655.50;5114797;28;19935;-69
2021/08/18 03:59:53;;;;;;;;;;;;;;;14.73;78.69;99651.19;5114800;28;19924;-69
2021/08/18 04:02:24;;;;;;;;;;;;;;;14.70;78.35;99655.56;5114800;28;19923;-69
2021/08/18 04:04:53;;;;;;;;;;;;;;;14.66;77.88;99664.19;5114826;28;19977;-69
2021/08/18 04:07:21;;;;;;;;;;;;;;;14.69;78.25;99664.97;5114958;28;19963;-70
2021/08/18 04:09:50;;;;;;;;;;;;;;;14.51;78.21;99660.16;5115303;28;20290;-69
2021/08/18 04:12:19;;;;;;;;;;;;;;;14.45;78.57;99665.41;5114833;28;19930;-69
2021/08/18 04:14:47;;;;;;;;;;;;;;;14.55;79.01;99671.22;5114747;28;20345;-69
2021/08/18 04:17:16;;;;;;;;;;;;;;;14.36;78.23;99670.69;5114579;28;20037;-69
2021/08/18 04:19:46;;;;;;;;;;;;;;;14.25;78.76;99684.53;5114472;28;19927;-69
2021/08/18 04:22:18;;;;;;;;;;;;;;;14.25;79.25;99693.09;5114720;28;19996;-69
2021/08/18 04:24:49;;;;;;;;;;;;;;;14.05;79.78;99692.53;5114656;28;20025;-70
2021/08/18 04:27:17;;;;;;;;;;;;;;;13.94;80.12;99691.84;5114172;28;20018;-68
2021/08/18 04:29:46;;;;;;;;;;;;;;;13.72;80.30;99688.72;5114414;28;20380;-69
2021/08/18 04:32:14;;;;;;;;;;;;;;;13.62;80.65;99688.84;5114351;28;20022;-72
2021/08/18 04:34:43;;;;;;;;;;;;;;;13.71;81.29;99693.84;5114435;28;19930;-68
2021/08/18 04:37:13;;;;;;;;;;;;;;;13.73;81.52;99692.13;5114272;28;20349;-68
2021/08/18 04:39:42;;;;;;;;;;;;;;;13.76;81.59;99689.53;5114681;28;19924;-69
2021/08/18 04:42:10;;;;;;;;;;;;;;;13.84;81.77;99695.41;5114471;28;19928;-69
2021/08/18 04:44:39;;;;;;;;;;;;;;;13.94;81.89;99691.84;5113375;28;19954;-69
2021/08/18 04:47:08;;;;;;;;;;;;;;;14.08;81.93;99692.50;5114165;28;19924;-69
2021/08/18 04:49:36;;;;;;;;;;;;;;;14.16;81.71;99698.34;5112713;28;20427;-69
2021/08/18 04:52:06;;;;;;;;;;;;;;;14.24;81.38;99701.66;5113385;28;20329;-69
2021/08/18 04:54:36;;;;;;;;;;;;;;;14.19;81.48;99698.31;5114248;28;20300;-69
2021/08/18 04:57:05;;;;;;;;;;;;;;;14.20;81.75;99701.72;5114156;28;19928;-69
2021/08/18 04:59:34;;;;;;;;;;;;;;;14.19;81.68;99697.44;5114022;28;20006;-69
2021/08/18 05:02:03;;;;;;;;;;;;;;;14.09;81.14;99696.75;5114084;28;20373;-68
2021/08/18 05:04:31;;;;;;;;;;;;;;;13.98;81.02;99707.19;5114065;28;19924;-70
2021/08/18 05:07:00;;;;;;;;;;;;;;;14.00;81.73;99707.16;5113937;28;19930;-68
2021/08/18 05:09:29;;;;;;;;;;;;;;;14.04;81.72;99717.34;5114271;28;20421;-69
2021/08/18 05:11:59;;;;;;;;;;;;;;;13.94;81.45;99717.50;5113852;28;19924;-69
2021/08/18 05:14:27;;;;;;;;;;;;;;;13.92;81.92;99721.78;5114329;28;19930;-69
2021/08/18 05:16:56;;;;;;;;;;;;;;;14.10;81.66;99724.13;5113997;28;20401;-66
2021/08/18 05:19:24;;;;;;;;;;;;;;;14.29;82.01;99719.56;5113801;28;19924;-68
2021/08/18 05:21:53;;;;;;;;;;;;;;;14.31;81.49;99723.81;5114231;28;20412;-67
2021/08/18 05:24:22;;;;;;;;;;;;;;;14.35;81.34;99730.59;5113846;28;20434;-67
2021/08/18 05:26:51;;;;;;;;;;;;;;;14.24;81.33;99724.75;5113882;28;19977;-67
2021/08/18 05:29:21;;;;;;;;;;;;;;;14.32;81.60;99720.41;5113669;28;19924;-67
2021/08/18 05:31:51;;;;;;;;;;;;;;;14.48;81.70;99721.00;5113825;28;19927;-67
2021/08/18 05:34:20;;;;;;;;;;;;;;;14.60;80.78;99724.22;5113803;28;19962;-69
2021/08/18 05:36:49;;;;;;;;;;;;;;;14.54;80.26;99726.88;5113672;28;19928;-68
2021/08/18 05:39:17;;;;;;;;;;;;;;;14.69;80.38;99720.63;5115160;28;19970;-68
2021/08/18 05:41:46;;;;;;;;;;;;;;;14.72;80.09;99721.44;5117258;28;19928;-68
2021/08/18 05:44:15;;;;;;;;;;;;;;;14.82;79.95;99723.84;5117859;28;19959;-68
2021/08/18 05:46:45;;;;;;;;;;;;;;;14.69;79.40;99724.06;5116084;28;19924;-68
2021/08/18 05:49:20;;;;;;;;;;;;;;;14.70;79.41;99715.50;5117247;28;19949;-68
2021/08/18 05:51:49;;;;;;;;;;;;;;;14.80;79.27;99717.91;5117202;28;19923;-68
2021/08/18 05:54:18;;;;;;;;;;;;;;;14.69;79.02;99716.34;5117209;28;19924;-67
2021/08/18 05:56:48;;;;;;;;;;;;;;;14.80;79.18;99717.91;5117107;27;20367;-68
2021/08/18 05:59:17;;;;;;;;;;;;;;;14.96;79.15;99715.03;5115852;28;20022;-69
2021/08/18 06:01:47;;;;;;;;;;;;;;;15.07;78.85;99718.25;5116990;28;19928;-68
2021/08/18 06:04:16;;;;;;;;;;;;;;;14.98;78.25;99723.56;5117415;28;19927;-70
2021/08/18 06:06:44;;;;;;;;;;;;;;;15.05;78.25;99716.56;5116945;28;19978;-70
2021/08/18 06:09:13;;;;;;;;;;;;;;;15.10;78.12;99717.34;5116811;28;19924;-71
2021/08/18 06:11:43;;;;;;;;;;;;;;;15.18;78.44;99715.50;5116697;28;20462;-70
2021/08/18 06:14:11;;;;;;;;;;;;;;;14.98;77.88;99715.00;5116454;28;19924;-70
2021/08/18 06:16:40;;;;;;;;;;;;;;;14.93;77.45;99716.81;5117094;28;20288;-69
2021/08/18 06:19:10;;;;;;;;;;;;;;;15.01;77.38;99717.53;5116689;28;19924;-70
2021/08/18 06:21:38;;;;;;;;;;;;;;;15.14;77.55;99708.72;5116909;28;19924;-70
2021/08/18 06:24:15;;;;;;;;;;;;;;;15.08;76.96;99711.38;5115401;28;19967;-70
2021/08/18 06:26:46;;;;;;;;;;;;;;;15.14;77.06;99714.69;5116563;28;19967;-70
2021/08/18 06:29:14;;;;;;;;;;;;;;;15.05;77.08;99712.28;5116486;28;19930;-70
2021/08/18 06:31:43;;;;;;;;;;;;;;;15.06;77.09;99715.72;5116486;28;20377;-70
2021/08/18 06:34:13;;;;;;;;;;;;;;;15.09;77.32;99718.25;5116348;28;19950;-70
2021/08/18 06:36:42;;;;;;;;;;;;;;;15.08;77.44;99719.09;5116294;28;19923;-70
2021/08/18 06:39:10;;;;;;;;;;;;;;;15.11;77.66;99719.06;5115079;28;20018;-70
2021/08/18 06:41:40;;;;;;;;;;;;;;;15.11;77.64;99722.47;5116263;28;19967;-69
2021/08/18 06:44:08;;;;;;;;;;;;;;;15.13;77.96;99722.44;5116133;28;19930;-70
2021/08/18 06:46:38;;;;;;;;;;;;;;;15.21;78.19;99721.41;5116462;28;20288;-70
2021/08/18 06:49:07;;;;;;;;;;;;;;;15.21;77.86;99725.72;5115989;28;19931;-69
2021/08/18 06:51:37;;;;;;;;;;;;;;;15.21;77.63;99736.00;5116205;28;20300;-70
2021/08/18 06:54:07;;;;;;;;;;;;;;;15.30;77.37;99734.13;5115802;28;20112;-69
2021/08/18 06:56:36;;;;;;;;;;;;;;;15.41;77.10;99729.59;5115916;28;19932;-69
2021/08/18 06:59:05;;;;;;;;;;;;;;;15.39;76.61;99722.78;5115870;28;19924;-69
2021/08/18 07:01:33;;;;;;;;;;;;;;;15.45;76.42;99722.72;5115850;28;20376;-69
2021/08/18 07:04:05;;;;;;;;;;;;;;;15.53;76.89;99713.09;5116085;28;19930;-69
2021/08/18 07:06:34;;;;;;;;;;;;;;;15.54;76.70;99724.25;5116001;28;19924;-70
2021/08/18 07:09:04;;;;;;;;;;;;;;;15.59;76.61;99727.56;5115773;28;20369;-69
2021/08/18 07:11:33;;;;;;;;;;;;;;;15.53;76.59;99728.53;5115779;28;19924;-70
2021/08/18 07:14:02;;;;;;;;;;;;;;;15.54;76.70;99732.81;5115281;28;20006;-70
2021/08/18 07:16:31;;;;;;;;;;;;;;;15.59;76.68;99732.72;5115880;28;20015;-70
2021/08/18 07:19:00;;;;;;;;;;;;;;;15.59;76.53;99737.88;5115467;28;19959;-70
2021/08/18 07:21:29;;;;;;;;;;;;;;;15.71;76.88;99735.06;5115469;28;19924;-69
2021/08/18 07:23:58;;;;;;;;;;;;;;;15.71;76.70;99746.19;5115352;28;19924;-70
2021/08/18 07:26:28;;;;;;;;;;;;;;;15.85;76.48;99736.47;5115403;28;19932;-70
2021/08/18 07:28:57;;;;;;;;;;;;;;;15.92;76.16;99740.59;5115221;28;20415;-70
2021/08/18 07:31:26;;;;;;;;;;;;;;;15.95;76.19;99743.13;5115245;28;20346;-69
2021/08/18 07:33:55;;;;;;;;;;;;;;;16.17;75.63;99742.63;5115136;28;19969;-70
2021/08/18 07:36:24;;;;;;;;;;;;;;;16.23;74.82;99734.75;5113611;28;19930;-70
2021/08/18 07:38:52;;;;;;;;;;;;;;;16.27;74.60;99733.81;5115031;28;19924;-70
2021/08/18 07:41:22;;;;;;;;;;;;;;;16.44;74.29;99741.97;5114931;28;20027;-70
2021/08/18 07:46:55;;;;;;;;;;;;;;;16.77;73.04;99741.22;5265478;23;20719;-72
2021/08/18 07:49:25;;;;;;;;;;;;;;;16.93;72.87;99745.09;4917842;29;19934;-72
2021/08/18 07:51:53;;;;;;;;;;;;;;;17.02;72.22;99744.88;4917839;29;20018;-71
2021/08/18 07:54:22;;;;;;;;;;;;;;;17.06;72.05;99745.66;4918117;29;19975;-73
2021/08/18 07:56:51;;;;;;;;;;;;;;;17.20;71.61;99746.13;4917800;29;19990;-73
2021/08/18 07:59:21;;;;;;;;;;;;;;;17.19;71.33;99740.13;4917933;29;19931;-71
2021/08/18 08:01:51;;;;;;;;;;;;;;;17.08;71.47;99747.31;4917567;29;19975;-72
2021/08/18 08:04:21;;;;;;;;;;;;;;;17.31;71.68;99744.09;4917980;29;19983;-73
2021/08/18 08:06:51;;;;;;;;;;;;;;;17.50;71.58;99734.09;4918225;29;19927;-71
2021/08/18 08:09:20;;;;;;;;;;;;;;;17.79;71.38;99731.59;4917989;29;20345;-71
2021/08/18 08:11:49;;;;;;;;;;;;;;;18.05;70.34;99729.06;4916357;29;19934;-74
2021/08/18 08:14:18;;;;;;;;;;;;;;;18.29;70.02;99725.75;4917451;29;19931;-71
2021/08/18 08:16:46;;;;;;;;;;;;;;;18.51;69.53;99731.09;4917729;29;19931;-71
2021/08/18 08:19:15;;;;;;;;;;;;;;;18.91;69.25;99723.72;4917932;29;20017;-72
2021/08/18 08:21:45;;;;;;;;;;;;;;;19.12;68.51;99717.00;4917815;29;19927;-71
2021/08/18 08:24:14;;;;;;;;;;;;;;;19.00;67.22;99722.59;4917787;29;20274;-71
2021/08/18 08:26:43;;;;;;;;;;;;;;;19.07;67.22;99714.56;4917695;29;19931;-72
2021/08/18 08:29:12;;;;;;;;;;;;;;;18.97;66.69;99714.91;4917454;29;19927;-72
2021/08/18 08:31:42;;;;;;;;;;;;;;;19.19;66.09;99714.13;4917784;29;19927;-71
2021/08/18 08:34:13;;;;;;;;;;;;;;;19.19;65.30;99713.28;4917664;29;19934;-72
2021/08/18 08:36:42;;;;;;;;;;;;;;;19.14;64.93;99710.88;4918422;29;19928;-71
2021/08/18 08:39:14;;;;;;;;;;;;;;;19.45;64.60;99710.66;4917355;29;19927;-74
2021/08/18 08:41:44;;;;;;;;;;;;;;;19.88;64.71;99705.56;4917643;29;19950;-73
2021/08/18 08:44:17;;;;;;;;;;;;;;;20.16;63.60;99704.47;4917287;29;19954;-72
2021/08/18 08:46:46;;;;;;;;;;;;;;;20.34;62.12;99703.78;4917352;29;19934;-72
2021/08/18 08:49:15;;;;;;;;;;;;;;;20.44;60.70;99694.75;4917840;29;19927;-73
2021/08/18 08:51:45;;;;;;;;;;;;;;;20.75;58.67;99696.91;4917284;29;19998;-74
2021/08/18 08:54:16;;;;;;;;;;;;;;;20.83;56.77;99687.88;4917442;29;19934;-73
2021/08/18 08:56:45;;;;;;;;;;;;;;;21.20;55.56;99698.44;4917628;29;20377;-72
2021/08/18 08:59:14;;;;;;;;;;;;;;;21.55;54.51;99701.19;4917407;29;20278;-71
2021/08/18 09:01:53;;;;;;;;;;;;;;;21.62;53.69;99694.84;4917500;29;19927;-72
2021/08/18 09:04:27;;;;;;;;;;;;;;;21.84;52.94;99690.31;4917426;29;19934;-72
2021/08/18 09:07:04;;;;;;;;;;;;;;;22.14;52.60;99688.94;4917490;29;19933;-72
2021/08/18 09:09:35;;;;;;;;;;;;;;;22.29;51.26;99693.38;4917475;29;19927;-71
2021/08/18 09:12:05;;;;;;;;;;;;;;;22.27;50.52;99687.41;4917294;29;20381;-73
2021/08/18 09:14:34;;;;;;;;;;;;;;;22.56;49.16;99692.03;4919011;29;19931;-73
2021/08/18 09:17:02;;;;;;;;;;;;;;;21.94;48.70;99691.59;4920951;29;19927;-73
2021/08/18 09:19:31;;;;;;;;;;;;;;;21.11;48.89;99680.66;4920607;29;20389;-73
2021/08/18 09:22:05;;;;;;;;;;;;;;;21.28;49.25;99679.91;4919866;29;19930;-74
2021/08/18 09:24:36;;;;;;;;;;;;;;;21.88;49.12;99677.13;4920897;29;19927;-71
2021/08/18 09:27:09;;;;;;;;;;;;;;;21.59;49.20;99684.56;4920877;29;20389;-72
2021/08/18 09:29:41;;;;;;;;;;;;;;;21.17;49.06;99676.94;4920755;29;19934;-71
2021/08/18 09:32:21;;;;;;;;;;;;;;;20.98;49.28;99676.00;4920984;29;19927;-71
2021/08/18 09:35:07;;;;;;;;;;;;;;;20.97;49.88;99677.75;4920745;29;19927;-73
2021/08/18 09:37:36;;;;;;;;;;;;;;;20.70;50.79;99681.53;4920670;29;19970;-72
2021/08/18 09:40:17;;;;;;;;;;;;;;;20.39;52.06;99681.13;4920654;29;19927;-73
2021/08/18 09:42:45;;;;;;;;;;;;;;;20.30;53.21;99681.50;4920547;29;19931;-73
2021/08/18 09:45:19;;;;;;;;;;;;;;;20.22;52.85;99683.50;4920391;29;19951;-71
2021/08/18 09:47:55;;;;;;;;;;;;;;;20.17;53.05;99680.25;4920177;29;20022;-72
2021/08/18 09:50:25;;;;;;;;;;;;;;;20.18;52.19;99680.19;4920299;29;19927;-73
2021/08/18 09:52:54;;;;;;;;;;;;;;;20.14;52.16;99685.53;4920615;29;19927;-72
2021/08/18 09:55:25;;;;;;;;;;;;;;;20.81;51.59;99681.91;4919907;29;20293;-69
2021/08/18 09:57:54;;;;;;;;;;;;;;;21.22;51.44;99686.22;4920123;29;19955;-71
2021/08/18 10:00:23;;;;;;;;;;;;;;;21.17;51.46;99684.72;4920016;29;19970;-72
2021/08/18 10:02:51;;;;;;;;;;;;;;;20.84;51.44;99679.22;4920092;29;20389;-71
2021/08/18 10:05:21;;;;;;;;;;;;;;;20.72;51.98;99684.91;4920082;29;20304;-74
2021/08/18 10:07:50;;;;;;;;;;;;;;;20.54;52.00;99685.66;4920106;29;20292;-72
2021/08/18 10:10:19;;;;;;;;;;;;;;;20.48;52.22;99680.75;4919741;29;19927;-74
2021/08/18 10:12:49;;;;;;;;;;;;;;;20.38;52.50;99682.88;4919973;29;20006;-72
2021/08/18 10:15:18;;;;;;;;;;;;;;;20.51;52.35;99675.44;4919953;29;19927;-73
2021/08/18 10:17:48;;;;;;;;;;;;;;;20.80;51.56;99677.66;4920244;29;20343;-73
2021/08/18 10:20:17;;;;;;;;;;;;;;;20.82;51.75;99685.38;4920125;29;20001;-73
2021/08/18 10:22:46;;;;;;;;;;;;;;;20.83;52.38;99680.09;4919785;29;20312;-72
2021/08/18 10:25:25;;;;;;;;;;;;;;;20.76;51.95;99686.47;4918044;29;19927;-72
2021/08/18 10:27:56;;;;;;;;;;;;;;;20.50;51.96;99676.31;4919823;29;20010;-72
2021/08/18 10:30:25;;;;;;;;;;;;;;;20.43;53.18;99674.91;4919650;29;19927;-73
2021/08/18 10:32:54;;;;;;;;;;;;;;;20.37;53.11;99677.75;4919689;29;19962;-72
2021/08/18 10:35:41;;;;;;;;;;;;;;;20.21;53.09;99676.63;4919631;29;19927;-74
2021/08/18 10:38:20;;;;;;;;;;;;;;;20.08;53.07;99674.53;4910852;29;19934;-73
2021/08/18 10:40:50;;;;;;;;;;;;;;;19.98;53.56;99673.22;4919868;29;20349;-72
2021/08/18 10:43:33;;;;;;;;;;;;;;;20.08;53.48;99674.53;4918143;29;20017;-72
2021/08/18 10:46:05;;;;;;;;;;;;;;;20.19;53.86;99678.44;4919232;29;19987;-72
2021/08/18 10:48:44;;;;;;;;;;;;;;;20.14;53.83;99676.03;4919334;29;19975;-71
2021/08/18 10:51:33;;;;;;;;;;;;;;;20.12;53.53;99671.81;4919574;29;19927;-73
2021/08/18 10:54:33;;;;;;;;;;;;;;;20.11;53.46;99672.72;4919648;29;19955;-71
2021/08/18 10:57:04;;;;;;;;;;;;;;;20.07;53.51;99669.41;4919424;29;20014;-72
2021/08/18 10:59:44;;;;;;;;;;;;;;;20.03;53.56;99668.66;4919223;29;19979;-73
2021/08/18 11:02:34;;;;;;;;;;;;;;;20.07;53.60;99672.00;4919177;29;19927;-74
2021/08/18 11:05:13;;;;;;;;;;;;;;;20.18;53.67;99671.59;4918896;29;19978;-73
2021/08/18 11:07:56;;;;;;;;;;;;;;;20.32;53.87;99659.78;4919221;29;19927;-71
2021/08/18 11:10:25;;;;;;;;;;;;;;;20.49;53.69;99672.88;4919004;29;19958;-74
2021/08/18 11:12:55;;;;;;;;;;;;;;;20.62;53.39;99673.22;4918856;29;20448;-73
2021/08/18 11:15:35;;;;;;;;;;;;;;;20.69;53.06;99664.28;4918833;29;19927;-72
2021/08/18 11:18:06;;;;;;;;;;;;;;;20.83;53.32;99672.31;4918909;29;19927;-71
2021/08/18 11:20:34;;;;;;;;;;;;;;;20.88;53.34;99675.56;4918807;29;19934;-71
2021/08/18 11:23:05;;;;;;;;;;;;;;;20.83;53.20;99677.50;4917250;29;20015;-73
2021/08/18 11:25:41;;;;;;;;;;;;;;;20.58;52.69;99679.47;4918632;29;20400;-73
2021/08/18 11:28:21;;;;;;;;;;;;;;;20.53;53.29;99677.06;4918536;29;19927;-73
2021/08/18 11:30:57;;;;;;;;;;;;;;;20.44;52.96;99674.00;4918480;29;20428;-74
2021/08/18 11:33:28;;;;;;;;;;;;;;;20.48;52.92;99681.59;4918460;29;19927;-73
2021/08/18 11:35:57;;;;;;;;;;;;;;;20.58;52.89;99671.69;4918491;29;19931;-71
2021/08/18 11:38:26;;;;;;;;;;;;;;;20.81;52.36;99674.13;4917994;29;20365;-72
2021/08/18 11:40:55;;;;;;;;;;;;;;;21.06;51.89;99664.44;4917112;29;20022;-71
2021/08/18 11:43:35;;;;;;;;;;;;;;;21.44;51.74;99659.28;4916970;29;19928;-70
2021/08/18 11:46:04;;;;;;;;;;;;;;;21.68;50.92;99659.00;4918307;29;20360;-71
2021/08/18 11:48:35;;;;;;;;;;;;;;;21.78;50.97;99659.44;4918102;29;20017;-71
2021/08/18 11:51:08;;;;;;;;;;;;;;;21.74;50.95;99657.91;4918182;29;19934;-73
2021/08/18 11:53:37;;;;;;;;;;;;;;;21.78;50.76;99659.44;4918295;29;19930;-74
2021/08/18 11:56:06;;;;;;;;;;;;;;;21.65;50.07;99661.75;4918452;29;20272;-72
2021/08/18 11:58:36;;;;;;;;;;;;;;;21.50;50.72;99659.03;4918023;29;20022;-73
2021/08/18 12:01:08;;;;;;;;;;;;;;;21.48;50.77;99655.63;4918198;29;19996;-74
2021/08/18 12:03:39;;;;;;;;;;;;;;;21.51;50.77;99655.50;4918096;29;19933;-72
2021/08/18 12:06:08;;;;;;;;;;;;;;;21.61;51.03;99659.38;4918120;29;19927;-72
2021/08/18 12:08:37;;;;;;;;;;;;;;;21.76;50.06;99645.66;4918247;29;20431;-73
2021/08/18 12:11:07;;;;;;;;;;;;;;;21.87;50.29;99648.63;4917959;29;19969;-71
2021/08/18 12:13:40;;;;;;;;;;;;;;;22.02;49.93;99647.91;4918038;29;19983;-72
2021/08/18 12:16:19;;;;;;;;;;;;;;;22.16;50.43;99653.28;4917770;29;20272;-71
2021/08/18 12:18:51;;;;;;;;;;;;;;;22.14;49.76;99655.13;4917749;29;19955;-71
2021/08/18 12:21:20;;;;;;;;;;;;;;;21.97;49.47;99647.28;4917785;29;20277;-71
2021/08/18 12:23:49;;;;;;;;;;;;;;;22.01;49.28;99656.63;4916508;29;19931;-73
2021/08/18 12:26:25;;;;;;;;;;;;;;;22.17;49.50;99652.34;4917620;29;20025;-71
2021/08/18 12:28:55;;;;;;;;;;;;;;;22.27;48.94;99653.59;4917669;29;20377;-71
2021/08/18 12:31:25;;;;;;;;;;;;;;;22.42;49.08;99657.22;4917645;29;20027;-73
2021/08/18 12:34:04;;;;;;;;;;;;;;;22.93;48.62;99651.19;4917724;29;19934;-73
2021/08/18 12:36:35;;;;;;;;;;;;;;;22.58;47.94;99653.75;4916585;29;19935;-74
2021/08/18 12:39:04;;;;;;;;;;;;;;;22.37;48.00;99644.44;4913805;29;20301;-72
2021/08/18 12:41:34;;;;;;;;;;;;;;;22.01;49.04;99646.22;4914899;29;20397;-73
2021/08/18 12:44:04;;;;;;;;;;;;;;;21.95;49.98;99641.31;4916171;29;20377;-73
2021/08/18 12:46:33;;;;;;;;;;;;;;;22.02;48.97;99640.13;4915288;29;19927;-73
2021/08/18 12:49:12;;;;;;;;;;;;;;;22.00;48.68;99634.16;4918793;29;19942;-72
2021/08/18 12:51:43;;;;;;;;;;;;;;;21.99;48.90;99629.84;4920720;29;20017;-74
2021/08/18 12:54:11;;;;;;;;;;;;;;;21.93;49.29;99627.56;4920865;29;19927;-72
2021/08/18 12:56:41;;;;;;;;;;;;;;;21.88;49.96;99634.72;4920482;29;19927;-73
2021/08/18 12:59:09;;;;;;;;;;;;;;;21.88;50.09;99626.94;4920539;29;19927;-73
2021/08/18 13:01:38;;;;;;;;;;;;;;;21.85;50.96;99624.47;4921289;29;19927;-72
2021/08/18 13:04:08;;;;;;;;;;;;;;;22.55;49.53;99627.06;4920673;29;19927;-73
2021/08/18 13:06:37;;;;;;;;;;;;;;;23.53;47.51;99615.84;4920931;29;19975;-73